Time;durP1;ratioP1;P1;durP2;ratioP2;P2;SDS_P1;SDS_P2;PMS_P1;PMS_P2;Temp;Humidity;BMP_temperature;BMP_pressure;BME280_temperature;BME280_humidity;BME280_pressure;Samples;Min_cycle;Max_cycle;Signal;HPM_P1;HPM_P2
2022/04/12 00:00:09;;;;;;;11.73;6.85;;;9.60;71.10;;;;;;5099390;28;20034;-54
2022/04/12 00:02:53;;;;;;;;;;;9.60;71.70;;;;;;5112860;28;20042;-55
2022/04/12 00:05:40;;;;;;;10.80;7.00;;;9.60;72.50;;;;;;5110632;28;19914;-57
2022/04/12 00:08:25;;;;;;;9.48;6.50;;;9.50;73.30;;;;;;5119117;27;20070;-59
2022/04/12 00:11:09;;;;;;;9.35;6.72;;;9.40;73.20;;;;;;5107871;28;20071;-57
2022/04/12 00:13:53;;;;;;;10.20;6.70;;;9.30;72.20;;;;;;5095982;28;20039;-54
2022/04/12 00:16:37;;;;;;;7.63;6.37;;;9.30;72.30;;;;;;5098199;28;20391;-55
2022/04/12 00:19:21;;;;;;;8.30;6.80;;;9.30;72.00;;;;;;5099577;28;20114;-56
2022/04/12 00:22:05;;;;;;;10.50;6.07;;;9.30;72.30;;;;;;5115419;28;20039;-58
2022/04/12 00:24:49;;;;;;;9.53;6.00;;;9.30;72.10;;;;;;5108402;28;20089;-55
2022/04/12 00:27:33;;;;;;;8.30;6.82;;;9.30;71.40;;;;;;5108244;28;20036;-55
2022/04/12 00:30:19;;;;;;;8.10;6.03;;;9.30;71.20;;;;;;5103477;28;20510;-56
2022/04/12 00:33:03;;;;;;;9.07;7.38;;;9.30;71.90;;;;;;5094852;28;20039;-57
2022/04/12 00:35:48;;;;;;;8.05;6.32;;;9.30;72.90;;;;;;5094857;28;20449;-56
2022/04/12 00:38:33;;;;;;;8.57;6.07;;;9.20;73.30;;;;;;5095521;28;20094;-57
2022/04/12 00:41:17;;;;;;;7.70;6.15;;;9.20;73.30;;;;;;5116468;27;20089;-58
2022/04/12 00:44:02;;;;;;;9.23;6.10;;;9.10;71.90;;;;;;5120809;27;20034;-56
2022/04/12 00:46:47;;;;;;;;;;;9.00;72.10;;;;;;5095680;28;20082;-55
2022/04/12 00:49:31;;;;;;;9.63;6.32;;;8.90;72.10;;;;;;5097630;28;20578;-55
2022/04/12 00:52:16;;;;;;;8.02;6.85;;;8.90;72.10;;;;;;5087260;28;20093;-57
2022/04/12 00:55:02;;;;;;;9.25;6.95;;;8.90;72.10;;;;;;5101081;28;20128;-59
2022/04/12 00:57:49;;;;;;;10.57;6.95;;;8.90;71.90;;;;;;5114693;28;20487;-58
2022/04/12 01:00:34;;;;;;;7.80;5.72;;;8.90;72.50;;;;;;5103600;28;20457;-58
2022/04/12 01:03:19;;;;;;;6.82;5.97;;;9.00;72.00;;;;;;5093874;28;20031;-56
2022/04/12 01:06:03;;;;;;;8.10;6.15;;;9.00;71.70;;;;;;5106947;28;20082;-57
2022/04/12 01:08:48;;;;;;;9.40;5.97;;;9.00;71.70;;;;;;5114593;28;20074;-58
2022/04/12 01:11:33;;;;;;;7.85;6.53;;;8.90;72.40;;;;;;5114039;28;20386;-54
2022/04/12 01:14:17;;;;;;;7.88;6.15;;;8.80;73.20;;;;;;5114693;28;20128;-58
2022/04/12 01:17:05;;;;;;;15.13;7.43;;;8.90;74.30;;;;;;5101600;28;20433;-54
2022/04/12 01:19:49;;;;;;;11.07;6.35;;;8.80;75.20;;;;;;5111192;28;20047;-54
2022/04/12 01:22:35;;;;;;;8.35;6.63;;;8.70;75.10;;;;;;5107969;28;20379;-55
2022/04/12 01:25:20;;;;;;;8.52;6.43;;;8.70;75.40;;;;;;5101065;28;20043;-53
2022/04/12 01:28:09;;;;;;;10.18;6.57;;;8.60;75.50;;;;;;5116243;28;20031;-54
2022/04/12 01:30:54;;;;;;;7.88;6.05;;;8.50;74.90;;;;;;5104357;28;20118;-58
2022/04/12 01:33:38;;;;;;;;;;;8.50;74.90;;;;;;5094780;28;20035;-55
2022/04/12 01:36:23;;;;;;;8.27;6.43;;;8.50;75.40;;;;;;5094910;28;19918;-56
2022/04/12 01:39:07;;;;;;;8.40;6.38;;;8.50;75.30;;;;;;5094762;28;20031;-54
2022/04/12 01:41:51;;;;;;;10.18;6.65;;;8.40;74.70;;;;;;5109302;27;20505;-56
2022/04/12 01:44:36;;;;;;;;;;;8.40;74.30;;;;;;5094783;28;20062;-57
2022/04/12 01:47:20;;;;;;;9.15;5.50;;;8.30;74.70;;;;;;5094855;28;20040;-56
2022/04/12 01:50:06;;;;;;;6.60;5.72;;;8.30;74.90;;;;;;5065261;28;20078;-56
2022/04/12 01:52:51;;;;;;;7.18;6.15;;;8.30;74.60;;;;;;5107027;28;20513;-57
2022/04/12 01:55:35;;;;;;;8.07;5.68;;;8.20;74.30;;;;;;5094559;28;20058;-59
2022/04/12 01:58:19;;;;;;;8.93;6.50;;;8.20;74.30;;;;;;5094283;28;20112;-55
2022/04/12 02:01:03;;;;;;;8.52;6.22;;;8.20;74.80;;;;;;5092629;28;20030;-58
2022/04/12 02:03:47;;;;;;;9.60;6.20;;;8.20;74.80;;;;;;5114148;28;20081;-58
2022/04/12 02:06:31;;;;;;;8.63;6.15;;;8.10;74.50;;;;;;5110055;28;20579;-56
2022/04/12 02:09:15;;;;;;;9.15;6.13;;;8.10;74.90;;;;;;5115493;28;20125;-56
2022/04/12 02:11:59;;;;;;;8.85;5.80;;;8.00;74.80;;;;;;5093216;28;20039;-57
2022/04/12 02:14:43;;;;;;;10.80;6.10;;;8.00;74.80;;;;;;5094759;28;20496;-56
2022/04/12 02:17:28;;;;;;;6.15;5.55;;;8.10;74.90;;;;;;5114095;28;20100;-57
2022/04/12 02:20:12;;;;;;;8.52;6.10;;;8.10;75.10;;;;;;5092291;28;20115;-55
2022/04/12 02:22:56;;;;;;;7.93;5.78;;;8.10;75.10;;;;;;5110940;28;20580;-56
2022/04/12 02:25:40;;;;;;;8.40;6.30;;;8.10;74.60;;;;;;5112335;28;20030;-55
2022/04/12 02:28:24;;;;;;;8.77;6.38;;;8.00;74.80;;;;;;5097705;28;20126;-57
2022/04/12 02:31:08;;;;;;;8.13;5.90;;;7.90;74.60;;;;;;5113301;28;20062;-55
2022/04/12 02:33:52;;;;;;;7.88;5.50;;;7.80;75.00;;;;;;5092753;28;20074;-58
2022/04/12 02:36:36;;;;;;;7.75;5.75;;;7.70;75.10;;;;;;5091475;28;20117;-57
2022/04/12 02:39:20;;;;;;;8.55;5.60;;;7.70;75.60;;;;;;5111161;28;20403;-58
2022/04/12 02:42:05;;;;;;;8.25;5.40;;;7.80;75.50;;;;;;5101010;28;20406;-58
2022/04/12 02:44:49;;;;;;;7.10;6.00;;;7.90;75.80;;;;;;5108623;28;20035;-54
2022/04/12 02:47:33;;;;;;;9.47;5.87;;;7.90;75.80;;;;;;5093273;28;20039;-55
2022/04/12 02:50:17;;;;;;;7.82;6.05;;;8.00;76.20;;;;;;5099745;28;20283;-56
2022/04/12 02:53:01;;;;;;;6.55;5.57;;;8.00;76.00;;;;;;5112549;28;20580;-59
2022/04/12 02:55:45;;;;;;;10.07;6.05;;;8.00;76.10;;;;;;5101282;28;20070;-56
2022/04/12 02:58:29;;;;;;;10.68;5.68;;;8.00;76.20;;;;;;5112812;28;20516;-55
2022/04/12 03:01:13;;;;;;;7.55;5.45;;;8.00;76.10;;;;;;5097960;28;20039;-60
2022/04/12 03:03:57;;;;;;;6.20;5.38;;;8.00;76.20;;;;;;5092182;28;20503;-57
2022/04/12 03:06:41;;;;;;;7.45;5.85;;;8.00;76.30;;;;;;5110260;28;20506;-59
2022/04/12 03:09:25;;;;;;;7.80;5.80;;;8.00;76.00;;;;;;5113221;28;20050;-56
2022/04/12 03:12:09;;;;;;;7.50;5.65;;;7.90;75.80;;;;;;5092730;28;20115;-57
2022/04/12 03:14:53;;;;;;;7.95;6.05;;;7.90;76.10;;;;;;5092762;28;20090;-57
2022/04/12 03:17:37;;;;;;;12.40;5.80;;;7.90;76.20;;;;;;5092716;28;20581;-59
2022/04/12 03:20:22;;;;;;;7.10;5.73;;;7.90;76.30;;;;;;5100970;28;20129;-58
2022/04/12 03:23:06;;;;;;;9.52;5.82;;;8.00;76.10;;;;;;5125044;27;20034;-56
2022/04/12 03:25:52;;;;;;;9.80;5.97;;;7.90;75.70;;;;;;5097414;28;20076;-58
2022/04/12 03:28:37;;;;;;;8.98;6.38;;;7.80;75.90;;;;;;5103385;28;20058;-55
2022/04/12 03:31:21;;;;;;;7.90;6.47;;;7.80;76.30;;;;;;5111080;28;20050;-57
2022/04/12 03:34:05;;;;;;;6.85;5.68;;;7.80;76.70;;;;;;5097870;28;20060;-59
2022/04/12 03:36:50;;;;;;;7.65;6.20;;;7.80;76.60;;;;;;5099791;28;20047;-55
2022/04/12 03:39:34;;;;;;;7.97;5.50;;;7.80;76.20;;;;;;5112283;28;20043;-57
2022/04/12 03:42:18;;;;;;;6.85;5.70;;;7.80;76.40;;;;;;5126151;27;20050;-55
2022/04/12 03:45:03;;;;;;;11.20;6.28;;;7.80;76.80;;;;;;5130866;27;20047;-56
2022/04/12 03:47:47;;;;;;;8.20;5.35;;;7.70;77.40;;;;;;5087072;28;20094;-58
2022/04/12 03:50:34;;;;;;;12.77;6.70;;;7.70;76.80;;;;;;5107727;28;20046;-58
2022/04/12 03:53:18;;;;;;;9.07;6.20;;;7.70;77.00;;;;;;5114221;28;20039;-55
2022/04/12 03:56:07;;;;;;;11.25;6.20;;;7.70;77.30;;;;;;5110254;28;20039;-57
2022/04/12 03:58:51;;;;;;;11.88;6.15;;;7.70;77.20;;;;;;5116891;28;20042;-60
2022/04/12 04:01:35;;;;;;;9.82;6.10;;;7.70;77.30;;;;;;5097464;28;20047;-57
2022/04/12 04:04:19;;;;;;;8.95;6.03;;;7.60;77.60;;;;;;5097948;28;20561;-57
2022/04/12 04:07:04;;;;;;;10.52;6.78;;;7.60;77.30;;;;;;5135318;27;20046;-56
2022/04/12 04:09:48;;;;;;;12.52;6.78;;;7.50;77.80;;;;;;5117975;27;20421;-58
2022/04/12 04:12:32;;;;;;;9.80;7.30;;;7.50;78.00;;;;;;5115446;28;20532;-56
2022/04/12 04:15:18;;;;;;;14.33;6.60;;;7.50;78.20;;;;;;5110117;28;20074;-56
2022/04/12 04:18:02;;;;;;;10.85;6.57;;;7.40;78.20;;;;;;5094792;28;20039;-56
2022/04/12 04:20:47;;;;;;;9.48;5.95;;;7.30;78.50;;;;;;5108404;28;20054;-57
2022/04/12 04:23:31;;;;;;;7.20;6.00;;;7.30;79.20;;;;;;5113944;28;20514;-58
2022/04/12 04:26:15;;;;;;;6.65;5.60;;;7.20;79.50;;;;;;5095546;28;20078;-56
2022/04/12 04:29:01;;;;;;;10.10;5.78;;;7.30;79.50;;;;;;5097725;28;20031;-57
2022/04/12 04:31:45;;;;;;;14.55;6.68;;;7.30;79.50;;;;;;5093789;28;20526;-56
2022/04/12 04:34:30;;;;;;;12.18;6.07;;;7.40;79.70;;;;;;5104623;28;20043;-56
2022/04/12 04:37:14;;;;;;;9.52;5.97;;;7.30;79.70;;;;;;5114025;28;20031;-55
2022/04/12 04:39:58;;;;;;;13.10;6.47;;;7.40;79.50;;;;;;5098899;28;20115;-57
2022/04/12 04:42:42;;;;;;;12.75;6.15;;;7.50;79.70;;;;;;5121069;27;20115;-58
2022/04/12 04:45:26;;;;;;;15.95;6.18;;;7.50;79.70;;;;;;5097607;27;20166;-55
2022/04/12 04:48:11;;;;;;;8.18;5.85;;;7.50;79.00;;;;;;5093019;28;20383;-56
2022/04/12 04:50:55;;;;;;;8.32;5.60;;;7.50;79.60;;;;;;5093056;28;20100;-53
2022/04/12 04:53:39;;;;;;;10.25;6.40;;;7.40;79.70;;;;;;5094336;28;20047;-57
2022/04/12 04:56:27;;;;;;;10.40;6.60;;;7.40;80.10;;;;;;5113818;28;20030;-58
2022/04/12 04:59:12;;;;;;;8.50;6.32;;;7.40;80.00;;;;;;5082992;28;20046;-58
2022/04/12 05:01:56;;;;;;;10.07;6.70;;;7.40;80.10;;;;;;5111602;28;20490;-59
2022/04/12 05:04:40;;;;;;;10.95;6.57;;;7.50;80.20;;;;;;5097171;28;20491;-61
2022/04/12 05:07:25;;;;;;;10.65;6.40;;;7.60;79.80;;;;;;5106511;28;20035;-56
2022/04/12 05:10:14;;;;;;;9.32;6.45;;;7.50;80.30;;;;;;5118538;28;20545;-57
2022/04/12 05:13:00;;;;;;;12.23;6.90;;;7.50;80.30;;;;;;5110641;28;20716;-56
2022/04/12 05:15:45;;;;;;;18.35;7.63;;;7.50;80.60;;;;;;5106890;28;20441;-59
2022/04/12 05:18:29;;;;;;;16.67;7.18;;;7.60;81.00;;;;;;5114645;28;20051;-59
2022/04/12 05:21:13;;;;;;;13.00;6.70;;;7.70;80.30;;;;;;5115043;28;20414;-57
2022/04/12 05:23:57;;;;;;;15.55;7.25;;;7.90;80.40;;;;;;5112815;28;20030;-59
2022/04/12 05:26:41;;;;;;;25.70;8.57;;;8.00;80.30;;;;;;5111404;28;20106;-57
2022/04/12 05:29:25;;;;;;;65.82;12.13;;;8.00;79.90;;;;;;5107079;28;20058;-57
2022/04/12 05:32:10;;;;;;;20.07;8.73;;;8.00;79.80;;;;;;5114489;28;20174;-57
2022/04/12 05:34:54;;;;;;;;;;;8.10;80.00;;;;;;5100010;28;20032;-58
2022/04/12 05:37:45;;;;;;;10.57;6.50;;;8.10;79.90;;;;;;5079515;28;19911;-58
2022/04/12 05:40:29;;;;;;;11.60;6.55;;;8.00;79.40;;;;;;5094251;28;20557;-57
2022/04/12 05:43:13;;;;;;;20.52;7.25;;;8.00;79.80;;;;;;5127092;27;20058;-57
2022/04/12 05:45:57;;;;;;;21.50;7.00;;;8.00;80.10;;;;;;5115041;28;20517;-55
2022/04/12 05:48:41;;;;;;;9.73;6.72;;;8.00;80.40;;;;;;5108275;28;20706;-54
2022/04/12 05:51:25;;;;;;;8.93;6.55;;;8.10;79.60;;;;;;5094243;28;20046;-57
2022/04/12 05:54:09;;;;;;;12.40;6.95;;;8.00;80.40;;;;;;5106839;28;20047;-56
2022/04/12 05:56:54;;;;;;;7.97;6.05;;;8.00;80.50;;;;;;5095632;28;20696;-55
2022/04/12 05:59:38;;;;;;;11.25;6.55;;;8.00;80.50;;;;;;5115398;28;20104;-55
2022/04/12 06:02:21;;;;;;;34.58;10.07;;;8.20;80.50;;;;;;5113930;28;20034;-55
2022/04/12 06:05:06;;;;;;;41.22;11.57;;;8.30;80.10;;;;;;5122542;27;20114;-58
2022/04/12 06:07:50;;;;;;;24.85;10.00;;;8.40;80.00;;;;;;5109046;28;20027;-56
2022/04/12 06:10:34;;;;;;;17.17;7.80;;;8.40;80.20;;;;;;5113475;28;20075;-58
2022/04/12 06:13:18;;;;;;;28.38;10.27;;;8.50;80.00;;;;;;5112644;28;20042;-56
2022/04/12 06:16:03;;;;;;;13.00;7.87;;;8.60;79.70;;;;;;5114383;28;20088;-58
2022/04/12 06:18:47;;;;;;;11.45;6.78;;;8.60;79.60;;;;;;5099598;28;20043;-55
2022/04/12 06:21:31;;;;;;;17.20;7.60;;;8.60;79.80;;;;;;5101474;28;20050;-59
2022/04/12 06:24:16;;;;;;;10.55;7.07;;;8.60;80.00;;;;;;5115197;28;20077;-55
2022/04/12 06:27:00;;;;;;;12.48;7.75;;;8.60;80.20;;;;;;5099385;28;20051;-57
2022/04/12 06:29:44;;;;;;;18.30;8.35;;;8.60;80.50;;;;;;5094109;28;20098;-58
2022/04/12 06:32:28;;;;;;;18.97;8.07;;;8.70;80.30;;;;;;5114641;28;20089;-58
2022/04/12 06:35:13;;;;;;;21.65;8.20;;;8.90;80.20;;;;;;5113172;28;20103;-53
2022/04/12 06:37:58;;;;;;;14.73;7.18;;;9.10;80.00;;;;;;5094109;28;20503;-53
2022/04/12 06:40:44;;;;;;;10.88;6.40;;;9.30;79.80;;;;;;5097145;28;20069;-54
2022/04/12 06:43:29;;;;;;;14.23;7.38;;;9.50;78.80;;;;;;5133874;27;20081;-54
2022/04/12 06:46:13;;;;;;;11.27;6.57;;;9.60;79.10;;;;;;5110215;28;20043;-57
2022/04/12 06:48:57;;;;;;;8.43;6.47;;;9.60;78.90;;;;;;5111121;28;20070;-57
2022/04/12 06:51:41;;;;;;;9.75;6.68;;;9.70;78.90;;;;;;5092649;28;20324;-55
2022/04/12 06:54:26;;;;;;;11.50;6.00;;;9.70;78.90;;;;;;5098469;28;20061;-55
2022/04/12 06:57:10;;;;;;;;;;;9.80;78.70;;;;;;5114772;28;20105;-56
2022/04/12 06:59:54;;;;;;;10.10;6.47;;;9.90;77.70;;;;;;5105068;28;19923;-55
2022/04/12 07:02:39;;;;;;;8.15;6.38;;;9.90;78.00;;;;;;5092354;28;20120;-58
2022/04/12 07:05:23;;;;;;;10.07;6.53;;;10.00;78.00;;;;;;5100043;28;20039;-56
2022/04/12 07:08:07;;;;;;;17.52;8.15;;;10.10;77.60;;;;;;5110999;28;20494;-57
2022/04/12 07:10:51;;;;;;;30.55;9.52;;;10.30;77.30;;;;;;5112818;28;20047;-56
2022/04/12 07:13:35;;;;;;;32.78;8.95;;;10.40;76.40;;;;;;5113077;28;20046;-56
2022/04/12 07:16:19;;;;;;;17.45;6.63;;;10.60;75.80;;;;;;5092820;28;20043;-57
2022/04/12 07:19:03;;;;;;;12.18;6.38;;;10.80;75.00;;;;;;5093212;28;20039;-58
2022/04/12 07:21:48;;;;;;;10.30;6.53;;;10.90;74.90;;;;;;5113739;28;20034;-57
2022/04/12 07:24:32;;;;;;;;;;;11.00;74.20;;;;;;5111159;28;20078;-56
2022/04/12 07:27:17;;;;;;;16.75;6.28;;;11.10;73.90;;;;;;5094601;28;20449;-59
2022/04/12 07:30:01;;;;;;;12.13;5.43;;;11.20;73.60;;;;;;5111166;28;20609;-58
2022/04/12 07:32:46;;;;;;;10.40;5.40;;;11.10;73.70;;;;;;5113110;28;20084;-56
2022/04/12 07:35:30;;;;;;;11.10;5.55;;;11.20;73.70;;;;;;5077251;28;20040;-57
2022/04/12 07:38:14;;;;;;;10.90;5.07;;;11.20;73.70;;;;;;5092465;28;20082;-54
2022/04/12 07:40:58;;;;;;;14.03;5.50;;;11.40;73.90;;;;;;5110999;28;20449;-57
2022/04/12 07:43:45;;;;;;;8.20;5.35;;;11.50;74.00;;;;;;5119718;28;20069;-57
2022/04/12 07:46:29;;;;;;;8.95;5.15;;;11.60;74.00;;;;;;5117930;28;20476;-58
2022/04/12 07:49:14;;;;;;;14.73;5.70;;;11.60;74.10;;;;;;5112286;28;20073;-58
2022/04/12 07:51:58;;;;;;;10.57;5.80;;;11.70;74.10;;;;;;5110611;28;20073;-55
2022/04/12 07:54:45;;;;;;;7.15;5.05;;;11.80;74.00;;;;;;5112571;28;20168;-58
2022/04/12 07:57:29;;;;;;;6.68;5.53;;;11.80;73.50;;;;;;5117524;28;20030;-54
2022/04/12 08:00:16;;;;;;;21.27;6.32;;;11.90;72.90;;;;;;5092558;28;20335;-57
2022/04/12 08:03:00;;;;;;;21.73;7.50;;;12.00;72.70;;;;;;5092488;28;20066;-58
2022/04/12 08:05:45;;;;;;;17.47;6.27;;;12.10;72.80;;;;;;5113625;28;20073;-56
2022/04/12 08:08:29;;;;;;;50.22;9.95;;;12.10;72.50;;;;;;5112205;28;20085;-58
2022/04/12 08:11:13;;;;;;;11.45;6.05;;;12.20;72.30;;;;;;5112045;28;20086;-56
2022/04/12 08:13:58;;;;;;;12.50;5.70;;;12.20;72.30;;;;;;5107540;28;20034;-56
2022/04/12 08:16:42;;;;;;;6.95;5.32;;;12.30;72.30;;;;;;5130064;27;20081;-57
2022/04/12 08:19:26;;;;;;;10.03;5.10;;;12.30;71.40;;;;;;5110037;28;20047;-59
2022/04/12 08:22:10;;;;;;;27.37;7.53;;;12.40;70.80;;;;;;5112278;28;20035;-57
2022/04/12 08:24:54;;;;;;;8.40;5.13;;;12.60;70.30;;;;;;5110321;28;20034;-56
2022/04/12 08:27:38;;;;;;;9.63;5.50;;;12.60;70.00;;;;;;5104421;28;20035;-55
2022/04/12 08:30:22;;;;;;;7.40;4.85;;;12.70;69.90;;;;;;5108073;27;20100;-53
2022/04/12 08:33:07;;;;;;;11.15;5.25;;;12.90;70.10;;;;;;5136233;27;20038;-57
2022/04/12 08:35:52;;;;;;;9.00;5.50;;;13.00;70.30;;;;;;5102953;28;20053;-56
2022/04/12 08:38:36;;;;;;;8.02;5.40;;;13.00;69.90;;;;;;5115893;28;20637;-58
2022/04/12 08:41:23;;;;;;;8.13;5.22;;;13.20;69.60;;;;;;5117127;27;20051;-58
2022/04/12 08:44:07;;;;;;;6.68;4.70;;;13.40;69.20;;;;;;5123771;27;20432;-57
2022/04/12 08:46:55;;;;;;;6.63;5.10;;;13.60;68.80;;;;;;5115080;28;20027;-56
2022/04/12 08:49:40;;;;;;;6.57;4.50;;;13.70;68.80;;;;;;5106784;28;20047;-59
2022/04/12 08:52:25;;;;;;;6.68;4.90;;;13.90;68.20;;;;;;5094591;28;20058;-56
2022/04/12 08:55:09;;;;;;;8.15;4.65;;;14.00;67.40;;;;;;5111070;28;20081;-57
2022/04/12 08:57:53;;;;;;;8.97;4.80;;;14.20;67.00;;;;;;5107844;28;20034;-57
2022/04/12 09:00:37;;;;;;;6.32;4.40;;;14.20;66.20;;;;;;5103592;28;20289;-59
2022/04/12 09:03:21;;;;;;;5.50;4.23;;;14.10;65.90;;;;;;5083600;28;20086;-56
2022/04/12 09:06:06;;;;;;;7.67;4.23;;;14.10;65.60;;;;;;5103104;28;20059;-58
2022/04/12 09:08:50;;;;;;;8.50;4.28;;;14.20;65.30;;;;;;5110414;28;20026;-55
2022/04/12 09:11:35;;;;;;;7.63;4.82;;;14.30;64.80;;;;;;5131207;27;20410;-57
2022/04/12 09:14:19;;;;;;;8.90;4.77;;;14.50;65.90;;;;;;5122389;27;20561;-58
2022/04/12 09:17:08;;;;;;;13.88;5.00;;;14.70;65.20;;;;;;5085738;28;20391;-59
2022/04/12 09:19:52;;;;;;;8.27;4.93;;;14.90;64.60;;;;;;5095210;28;20114;-54
2022/04/12 09:22:37;;;;;;;11.00;4.75;;;15.10;64.20;;;;;;5111471;28;20398;-56
2022/04/12 09:25:21;;;;;;;5.22;4.00;;;15.20;62.20;;;;;;5113140;28;20038;-51
2022/04/12 09:28:07;;;;;;;12.70;4.80;;;15.10;61.40;;;;;;5105370;28;20086;-58
2022/04/12 09:30:53;;;;;;;6.55;4.72;;;15.30;61.40;;;;;;5096995;28;20336;-59
2022/04/12 09:33:38;;;;;;;7.70;4.00;;;15.30;62.10;;;;;;5107245;28;20054;-58
2022/04/12 09:36:22;;;;;;;9.80;4.72;;;15.30;62.40;;;;;;5111150;28;20115;-58
2022/04/12 09:39:06;;;;;;;8.82;4.60;;;15.30;61.70;;;;;;5100135;28;20608;-59
2022/04/12 09:41:50;;;;;;;9.63;4.20;;;15.30;61.10;;;;;;5112933;27;20030;-57
2022/04/12 09:44:34;;;;;;;10.00;4.40;;;15.40;60.30;;;;;;5118690;27;20088;-58
2022/04/12 09:47:19;;;;;;;6.37;4.70;;;15.40;60.20;;;;;;5112159;28;20304;-57
2022/04/12 09:50:03;;;;;;;5.47;4.30;;;15.50;59.50;;;;;;5102611;28;20328;-61
2022/04/12 09:53:03;;;;;;;7.38;5.22;;;15.50;59.40;;;;;;5094177;28;20031;-57
2022/04/12 09:55:52;;;;;;;8.35;5.05;;;15.60;58.70;;;;;;5093240;28;20082;-55
2022/04/12 09:58:36;;;;;;;67.32;11.45;;;15.60;59.20;;;;;;5108789;28;20038;-57
2022/04/12 10:01:21;;;;;;;11.98;5.22;;;15.70;58.70;;;;;;5113715;28;20050;-55
2022/04/12 10:04:11;;;;;;;9.23;5.13;;;15.80;58.60;;;;;;5101720;28;20561;-56
2022/04/12 10:06:56;;;;;;;18.50;6.22;;;15.70;57.60;;;;;;5109416;28;20506;-56
2022/04/12 10:09:41;;;;;;;9.63;5.22;;;15.80;57.90;;;;;;5093418;28;20031;-58
2022/04/12 10:12:26;;;;;;;6.88;4.72;;;16.00;57.90;;;;;;5093650;28;20688;-57
2022/04/12 10:15:10;;;;;;;8.48;4.72;;;16.20;57.20;;;;;;5095384;28;20593;-59
2022/04/12 10:17:55;;;;;;;6.43;4.70;;;16.30;56.60;;;;;;5113793;28;20066;-56
2022/04/12 10:20:40;;;;;;;13.45;5.72;;;16.30;57.00;;;;;;5106706;28;20379;-55
2022/04/12 10:23:26;;;;;;;10.70;5.50;;;16.30;56.70;;;;;;5107044;28;20047;-57
2022/04/12 10:26:11;;;;;;;7.00;5.22;;;16.30;56.80;;;;;;5099257;28;20356;-57
2022/04/12 10:29:06;;;;;;;7.90;5.22;;;16.40;55.60;;;;;;5107918;28;20039;-58
2022/04/12 10:31:58;;;;;;;14.82;4.97;;;16.30;55.60;;;;;;5109309;28;20035;-58
2022/04/12 10:34:59;;;;;;;7.57;4.15;;;16.40;55.10;;;;;;5103766;28;20035;-55
2022/04/12 10:37:44;;;;;;;18.27;5.80;;;16.60;54.90;;;;;;5102006;28;20560;-56
2022/04/12 10:40:33;;;;;;;8.90;4.90;;;16.70;54.30;;;;;;5128645;27;20038;-57
2022/04/12 10:43:36;;;;;;;6.07;4.35;;;16.80;52.60;;;;;;5117344;27;20086;-58
2022/04/12 10:46:20;;;;;;;8.45;4.90;;;16.50;52.40;;;;;;5091048;28;20062;-58
2022/04/12 10:49:07;;;;;;;20.65;5.88;;;16.40;53.20;;;;;;5081130;28;20073;-56
2022/04/12 10:52:00;;;;;;;8.38;5.20;;;16.40;53.90;;;;;;5111771;28;20081;-56
2022/04/12 10:54:47;;;;;;;8.57;5.05;;;16.50;54.20;;;;;;5113088;27;20048;-56
2022/04/12 10:57:31;;;;;;;7.25;5.22;;;16.50;53.10;;;;;;5096086;28;20046;-54
2022/04/12 11:00:22;;;;;;;7.53;4.95;;;16.50;54.00;;;;;;5112514;28;20071;-60
2022/04/12 11:03:08;;;;;;;6.90;4.95;;;16.50;53.90;;;;;;5103917;28;20035;-60
2022/04/12 11:05:55;;;;;;;6.78;4.90;;;16.60;54.70;;;;;;5094964;28;20067;-58
2022/04/12 11:08:38;;;;;;;8.25;4.90;;;16.60;55.00;;;;;;5113602;28;20082;-56
2022/04/12 11:11:33;;;;;;;9.90;5.20;;;16.70;55.40;;;;;;5107698;28;20057;-53
2022/04/12 11:14:26;;;;;;;8.45;4.95;;;16.80;54.20;;;;;;5105892;28;20039;-57
2022/04/12 11:17:14;;;;;;;7.70;5.18;;;16.80;54.20;;;;;;5112791;28;20043;-57
2022/04/12 11:20:00;;;;;;;8.27;4.78;;;16.90;54.10;;;;;;5105961;28;20039;-56
2022/04/12 11:22:54;;;;;;;7.50;5.25;;;17.10;53.40;;;;;;5094359;28;20503;-58
2022/04/12 11:25:51;;;;;;;7.57;4.80;;;17.10;52.70;;;;;;5111866;28;20062;-58
2022/04/12 11:28:35;;;;;;;10.63;4.88;;;17.00;53.10;;;;;;5112669;28;20437;-58
2022/04/12 11:31:21;;;;;;;7.78;4.57;;;17.20;53.40;;;;;;5091916;28;20093;-60
2022/04/12 11:34:06;;;;;;;14.05;5.75;;;17.30;53.50;;;;;;5099116;28;20145;-57
2022/04/12 11:36:56;;;;;;;7.97;4.78;;;17.30;53.60;;;;;;5112341;28;20039;-60
2022/04/12 11:39:44;;;;;;;6.20;4.30;;;17.40;53.80;;;;;;5100681;28;20123;-58
2022/04/12 11:42:29;;;;;;;7.47;4.65;;;17.20;52.50;;;;;;5122876;28;20572;-58
2022/04/12 11:45:13;;;;;;;;;;;17.30;52.60;;;;;;5118423;28;20119;-57
2022/04/12 11:47:58;;;;;;;9.20;4.78;;;17.30;51.70;;;;;;5133526;28;20397;-58
2022/04/12 11:50:48;;;;;;;;;;;17.30;51.70;;;;;;5134600;28;20080;-60
2022/04/12 11:53:33;;;;;;;8.52;3.90;;;17.40;51.00;;;;;;5134704;28;19970;-57
2022/04/12 11:56:17;;;;;;;9.82;4.60;;;17.40;49.40;;;;;;5131368;28;20042;-60
2022/04/12 11:59:01;;;;;;;18.30;4.45;;;17.40;47.70;;;;;;5112065;28;20530;-58
2022/04/12 12:01:45;;;;;;;5.05;3.55;;;17.40;47.90;;;;;;5112837;28;20089;-53
2022/04/12 12:04:31;;;;;;;14.82;5.18;;;17.50;48.60;;;;;;5116526;28;20058;-57
2022/04/12 12:07:16;;;;;;;7.20;4.45;;;17.30;48.60;;;;;;5116002;28;20086;-58
2022/04/12 12:10:04;;;;;;;19.13;4.60;;;17.40;48.40;;;;;;5116100;28;20047;-59
2022/04/12 12:12:49;;;;;;;6.65;4.32;;;17.50;48.70;;;;;;5115870;28;20390;-56
2022/04/12 12:15:34;;;;;;;7.45;4.07;;;17.50;48.40;;;;;;5115999;28;20038;-53
2022/04/12 12:18:20;;;;;;;7.47;4.38;;;17.70;48.40;;;;;;5117176;28;20777;-61
2022/04/12 12:21:04;;;;;;;5.88;4.45;;;17.90;49.10;;;;;;5116168;28;20134;-57
2022/04/12 12:23:48;;;;;;;6.97;4.38;;;18.20;49.90;;;;;;5115641;28;20072;-58
2022/04/12 12:26:32;;;;;;;7.50;4.55;;;18.20;47.30;;;;;;5115479;28;20482;-56
2022/04/12 12:29:17;;;;;;;6.20;4.07;;;18.20;46.80;;;;;;5115650;28;20046;-57
2022/04/12 12:32:01;;;;;;;8.30;4.22;;;18.20;47.30;;;;;;5115701;28;20395;-56
2022/04/12 12:34:46;;;;;;;5.30;3.90;;;18.40;46.80;;;;;;5116247;28;20089;-61
2022/04/12 12:37:30;;;;;;;6.00;3.77;;;18.50;44.40;;;;;;5115415;28;20038;-55
2022/04/12 12:40:20;;;;;;;4.50;3.50;;;18.60;44.10;;;;;;5115716;28;20039;-56
2022/04/12 12:43:13;;;;;;;9.23;3.65;;;18.80;43.20;;;;;;5132399;27;20398;-57
2022/04/12 12:46:04;;;;;;;8.65;4.38;;;19.00;43.70;;;;;;5136825;27;20030;-57
2022/04/12 12:49:08;;;;;;;8.85;4.88;;;19.20;44.60;;;;;;5136025;27;20025;-57
2022/04/12 12:51:52;;;;;;;7.32;4.20;;;19.20;45.10;;;;;;5120842;27;20034;-58
2022/04/12 12:54:37;;;;;;;6.75;4.18;;;19.20;44.30;;;;;;5136416;27;20087;-60
2022/04/12 12:57:38;;;;;;;7.20;3.70;;;19.00;43.80;;;;;;5124467;27;20123;-62
2022/04/12 13:00:27;;;;;;;6.05;3.30;;;19.00;43.40;;;;;;5115208;28;20119;-55
2022/04/12 13:03:16;;;;;;;7.20;4.00;;;18.90;42.00;;;;;;5116964;28;20035;-56
2022/04/12 13:06:02;;;;;;;9.15;4.57;;;18.90;41.50;;;;;;5113620;27;20077;-57
2022/04/12 13:08:46;;;;;;;4.93;4.30;;;19.10;43.00;;;;;;5136985;27;20076;-60
2022/04/12 13:11:34;;;;;;;13.75;4.97;;;19.30;43.20;;;;;;5095040;28;20104;-58
2022/04/12 13:14:18;;;;;;;5.18;3.78;;;19.50;41.50;;;;;;5105420;28;20047;-55
2022/04/12 13:17:04;;;;;;;6.70;3.95;;;19.50;39.60;;;;;;5099357;28;20108;-55
2022/04/12 13:19:48;;;;;;;6.60;4.25;;;19.70;40.00;;;;;;5115049;28;20035;-57
2022/04/12 13:22:32;;;;;;;6.90;4.25;;;19.80;40.60;;;;;;5106655;28;20031;-58
2022/04/12 13:25:19;;;;;;;24.08;6.22;;;19.80;41.00;;;;;;5079194;28;20038;-57
2022/04/12 13:28:04;;;;;;;10.63;4.15;;;20.10;41.70;;;;;;5095167;28;20027;-58
2022/04/12 13:30:50;;;;;;;6.03;3.90;;;20.30;41.40;;;;;;5094808;28;20074;-57
2022/04/12 13:33:34;;;;;;;6.68;4.47;;;20.40;41.00;;;;;;5094044;28;20071;-59
2022/04/12 13:36:18;;;;;;;10.85;5.25;;;20.40;41.20;;;;;;5094542;28;20082;-60
2022/04/12 13:39:03;;;;;;;7.18;3.97;;;20.40;42.80;;;;;;5097002;28;20038;-56
2022/04/12 13:41:49;;;;;;;5.80;4.30;;;20.50;42.20;;;;;;5119794;27;20391;-62
2022/04/12 13:44:33;;;;;;;6.38;4.45;;;20.50;40.40;;;;;;5114918;28;20066;-54
2022/04/12 13:47:17;;;;;;;;;;;20.30;40.70;;;;;;5095890;28;20031;-58
2022/04/12 13:50:02;;;;;;;8.35;4.13;;;20.50;41.50;;;;;;5093850;28;20334;-58
2022/04/12 13:52:46;;;;;;;7.25;4.72;;;20.60;40.40;;;;;;5101400;28;20563;-59
2022/04/12 13:55:30;;;;;;;4.65;3.78;;;20.90;41.10;;;;;;5114183;28;20085;-61
2022/04/12 13:58:14;;;;;;;6.00;4.63;;;21.20;41.80;;;;;;5112032;28;20144;-57
2022/04/12 14:01:00;;;;;;;7.75;4.20;;;21.50;42.20;;;;;;5113815;28;20038;-59
2022/04/12 14:03:44;;;;;;;8.48;4.43;;;21.40;43.20;;;;;;5114111;28;20027;-59
2022/04/12 14:06:28;;;;;;;8.23;4.70;;;21.60;42.60;;;;;;5108856;28;20088;-56
2022/04/12 14:09:13;;;;;;;6.55;4.22;;;21.60;42.30;;;;;;5098566;28;20042;-58
2022/04/12 14:11:57;;;;;;;6.72;4.60;;;21.60;43.50;;;;;;5113529;28;20119;-60
2022/04/12 14:14:41;;;;;;;6.20;4.55;;;22.00;43.90;;;;;;5099029;28;20046;-60
2022/04/12 14:17:25;;;;;;;6.43;4.60;;;22.10;44.40;;;;;;5113945;28;20510;-57
2022/04/12 14:20:10;;;;;;;6.65;4.53;;;22.30;44.90;;;;;;5113256;28;20041;-59
2022/04/12 14:22:54;;;;;;;9.27;4.90;;;22.30;44.60;;;;;;5093223;28;20124;-57